Time;durP1;ratioP1;P1;durP2;ratioP2;P2;SDS_P1;SDS_P2;PMS_P1;PMS_P2;Temp;Humidity;BMP_temperature;BMP_pressure;BME280_temperature;BME280_humidity;BME280_pressure;Samples;Min_cycle;Max_cycle;Signal;HPM_P1;HPM_P2
2021/08/26 00:07:32;;;;;;;;;14.75;13.50;;;;;19.84;46.96;101585.38;4960239;28;45322;-94
2021/08/26 00:09:57;;;;;;;;;15.25;13.50;;;;;19.83;47.22;101594.25;4959654;28;45462;-93
2021/08/26 00:12:23;;;;;;;;;12.00;12.00;;;;;19.79;47.65;101604.16;4959876;28;44927;-92
2021/08/26 00:14:51;;;;;;;;;13.00;10.25;;;;;19.77;47.44;101600.78;4959316;28;47331;-93
2021/08/26 00:17:16;;;;;;;;;15.00;12.75;;;;;19.76;47.68;101607.00;4959056;28;45256;-92
2021/08/26 00:19:42;;;;;;;;;10.50;10.50;;;;;19.71;47.87;101602.00;4975115;28;45661;-92
2021/08/26 00:22:08;;;;;;;;;13.25;12.25;;;;;19.65;47.99;101605.00;4975602;28;44925;-93
2021/08/26 00:24:35;;;;;;;;;14.25;13.75;;;;;19.66;48.26;101612.00;4974892;28;46781;-93
2021/08/26 00:27:01;;;;;;;;;11.75;10.00;;;;;19.59;48.19;101600.94;4981026;28;45409;-93
2021/08/26 00:29:26;;;;;;;;;16.00;14.25;;;;;19.59;48.15;101606.22;4978461;28;45339;-94
2021/08/26 00:31:52;;;;;;;;;15.00;12.75;;;;;19.56;48.28;101608.19;4958271;28;44874;-94
2021/08/26 00:34:17;;;;;;;;;12.75;12.50;;;;;19.52;48.46;101607.53;4974952;28;47223;-93
2021/08/26 00:36:50;;;;;;;;;11.25;11.25;;;;;19.53;48.78;101617.16;4974880;28;45668;-93
2021/08/26 00:39:15;;;;;;;;;12.75;12.50;;;;;19.48;48.45;101613.94;4971724;28;45436;-93
2021/08/26 00:41:44;;;;;;;;;15.00;13.00;;;;;19.46;48.49;101605.28;4955853;28;45347;-93
2021/08/26 00:44:10;;;;;;;;;13.00;13.00;;;;;19.44;48.78;101613.28;4939293;28;47257;-94
2021/08/26 00:46:37;;;;;;;;;15.00;14.00;;;;;19.44;48.82;101609.81;4955786;28;45475;-94
2021/08/26 00:49:07;;;;;;;;;13.00;13.00;;;;;19.45;48.88;101606.22;4967149;28;45277;-94
2021/08/26 00:51:34;;;;;;;;;14.75;12.25;;;;;19.42;48.84;101607.25;4974959;28;45635;-92
2021/08/26 00:53:59;;;;;;;;;14.00;14.00;;;;;19.40;49.20;101603.00;4974626;28;47289;-94
2021/08/26 00:56:24;;;;;;;;;14.50;14.25;;;;;19.34;48.94;101605.06;4974822;28;45444;-93
2021/08/26 00:58:51;;;;;;;;;14.50;13.25;;;;;19.34;49.41;101604.22;4974936;28;45277;-94
2021/08/26 01:01:28;;;;;;;;;15.50;12.50;;;;;19.32;49.30;101606.09;4958298;28;45351;-93
2021/08/26 01:04:13;;;;;;;;;13.00;12.50;;;;;19.28;49.71;101594.88;4958459;28;47573;-93
2021/08/26 01:06:49;;;;;;;;;11.00;11.00;;;;;19.20;49.86;101595.34;4958126;28;45444;-93
2021/08/26 01:09:29;;;;;;;;;13.00;11.50;;;;;19.14;50.00;101589.56;4957887;28;44870;-93
2021/08/26 01:11:57;;;;;;;;;10.75;10.75;;;;;19.10;50.02;101591.53;4975091;28;45501;-93
2021/08/26 01:14:22;;;;;;;;;12.00;12.00;;;;;19.06;50.30;101593.50;4958306;28;47066;-93
2021/08/26 01:16:48;;;;;;;;;11.50;11.25;;;;;19.04;50.29;101590.13;4973695;28;45442;-94
2021/08/26 01:19:17;;;;;;;;;15.25;13.75;;;;;19.00;52.12;101585.06;4958042;28;45312;-93
2021/08/26 01:21:42;;;;;;;;;10.00;8.67;;;;;18.96;50.21;101580.00;4958508;28;44939;-93
2021/08/26 01:24:12;;;;;;;;;10.00;8.00;;;;;18.94;49.99;101583.66;4974094;28;47170;-93
2021/08/26 01:26:48;;;;;;;;;11.00;9.00;;;;;18.89;50.13;101577.78;4974691;28;45540;-93
2021/08/26 01:29:15;;;;;;;;;7.25;7.25;;;;;18.87;50.32;101575.25;4974559;28;45606;-94
2021/08/26 01:31:43;;;;;;;;;5.00;5.00;;;;;18.82;50.23;101572.88;4974139;28;44911;-94
2021/08/26 01:34:08;;;;;;;;;8.33;7.00;;;;;18.80;50.73;101572.09;4958061;28;47254;-93
2021/08/26 01:36:37;;;;;;;;;6.33;6.33;;;;;18.76;50.60;101573.25;4958135;28;45735;-93
2021/08/26 01:39:07;;;;;;;;;8.00;8.00;;;;;18.75;50.86;101568.88;4958489;28;45414;-93
2021/08/26 01:41:49;;;;;;;;;7.67;7.00;;;;;18.70;50.74;101563.00;4957706;28;45314;-92
2021/08/26 01:44:19;;;;;;;;;9.00;6.33;;;;;18.67;51.07;101571.13;4977062;28;47257;-93
2021/08/26 01:46:44;;;;;;;;;6.67;6.67;;;;;18.62;50.93;101566.13;4977555;28;45515;-93
2021/08/26 01:49:10;;;;;;;;;7.67;7.33;;;;;18.58;51.12;101559.31;4977101;28;45287;-92
2021/08/26 01:51:37;;;;;;;;;7.75;5.50;;;;;18.55;51.25;101562.97;4978013;28;45288;-94
2021/08/26 01:54:03;;;;;;;;;7.75;6.00;;;;;18.53;50.99;101570.13;4976955;28;46918;-92
2021/08/26 01:56:28;;;;;;;;;6.75;6.75;;;;;18.45;51.00;101567.06;4977189;28;45487;-92
2021/08/26 01:58:54;;;;;;;;;8.50;7.50;;;;;18.42;51.22;101560.19;4977726;28;45426;-94
2021/08/26 02:01:19;;;;;;;;;7.50;6.00;;;;;18.38;51.11;101563.09;4961414;28;45343;-92
2021/08/26 02:03:45;;;;;;;;;8.00;6.33;;;;;18.33;51.53;101557.22;4977068;28;47046;-94
2021/08/26 02:06:10;;;;;;;;;8.75;8.75;;;;;18.32;51.55;101558.16;4961180;28;45548;-92
2021/08/26 02:08:36;;;;;;;;;7.50;7.50;;;;;18.30;51.83;101559.06;4961186;28;45465;-93
2021/08/26 02:11:04;;;;;;;;;9.25;7.50;;;;;18.27;51.58;101561.03;4961372;28;44824;-93
2021/08/26 02:13:29;;;;;;;;;7.00;6.67;;;;;18.23;51.99;101560.34;4960965;28;46926;-93
2021/08/26 02:15:58;;;;;;;;;11.75;9.75;;;;;18.17;52.00;101558.06;4961017;28;44887;-94
2021/08/26 02:18:24;;;;;;;;;8.00;8.00;;;;;18.11;52.31;101558.41;4960884;28;45662;-93
2021/08/26 02:20:49;;;;;;;;;7.00;7.00;;;;;18.05;52.01;101561.34;4961184;28;45395;-92
2021/08/26 02:23:14;;;;;;;;;8.00;6.25;;;;;18.05;52.49;101567.44;4961102;28;46966;-93
2021/08/26 02:25:40;;;;;;;;;8.00;7.50;;;;;18.00;52.39;101561.56;4960351;28;45301;-93
2021/08/26 02:28:05;;;;;;;;;9.00;8.00;;;;;17.98;53.01;101563.44;4977448;28;45399;-93
2021/08/26 02:30:31;;;;;;;;;7.75;7.75;;;;;17.94;52.77;101561.91;4977342;28;45407;-93
2021/08/26 02:32:56;;;;;;;;;7.00;6.75;;;;;17.88;52.71;101557.84;4976702;28;46865;-92
2021/08/26 02:35:22;;;;;;;;;7.50;7.50;;;;;17.87;53.03;101564.06;4976361;28;45294;-92
2021/08/26 02:37:47;;;;;;;;;6.75;6.75;;;;;17.87;52.96;101564.06;4960959;28;45391;-93
2021/08/26 02:40:13;;;;;;;;;8.25;7.25;;;;;17.80;53.12;101560.03;4960454;28;45442;-94
2021/08/26 02:42:38;;;;;;;;;10.00;8.75;;;;;17.77;53.45;101568.94;4960472;28;47127;-93
2021/08/26 02:45:04;;;;;;;;;9.00;8.75;;;;;17.72;53.36;101565.69;4977133;28;46039;-92
2021/08/26 02:47:30;;;;;;;;;9.00;7.00;;;;;17.72;53.36;101560.44;4976251;28;45398;-94
2021/08/26 02:49:55;;;;;;;;;8.50;7.00;;;;;17.71;53.52;101562.22;4976972;28;45231;-93
2021/08/26 02:52:21;;;;;;;;;7.25;7.25;;;;;17.67;53.52;101557.22;4976277;28;47161;-94
2021/08/26 02:54:46;;;;;;;;;7.00;7.00;;;;;17.65;53.55;101554.66;4959744;28;45348;-93
2021/08/26 02:57:12;;;;;;;;;9.50;9.25;;;;;17.65;53.46;101551.16;4960505;28;45369;-93
2021/08/26 02:59:37;;;;;;;;;10.00;9.75;;;;;17.62;53.58;101557.44;4983350;28;45349;-93
2021/08/26 03:02:03;;;;;;;;;10.50;8.75;;;;;17.59;53.83;101561.09;4979843;28;47194;-93
2021/08/26 03:04:28;;;;;;;;;11.25;10.25;;;;;17.58;53.74;101550.63;4979556;28;45446;-93
2021/08/26 03:06:59;;;;;;;;;8.25;8.25;;;;;17.59;53.62;101560.25;4979583;28;45621;-92
2021/08/26 03:09:24;;;;;;;;;9.00;9.00;;;;;17.50;53.76;101545.81;4980069;28;45775;-94
2021/08/26 03:11:50;;;;;;;;;9.25;9.25;;;;;17.52;54.35;101558.84;4979176;28;46962;-93
2021/08/26 03:14:15;;;;;;;;;8.50;8.50;;;;;17.45;53.66;101553.91;4979567;28;45438;-93
2021/08/26 03:16:41;;;;;;;;;9.67;7.33;;;;;17.42;53.92;101547.97;4980067;28;45777;-92
2021/08/26 03:19:06;;;;;;;;;9.25;8.00;;;;;17.40;53.94;101545.41;4964128;28;45244;-92
2021/08/26 03:21:32;;;;;;;;;11.25;11.00;;;;;17.43;53.92;101552.28;4959809;28;47120;-92
2021/08/26 03:23:57;;;;;;;;;8.50;8.50;;;;;17.36;54.41;101551.78;4960116;28;45281;-92
2021/08/26 03:26:23;;;;;;;;;10.00;9.25;;;;;17.35;54.40;101550.06;4960254;28;45587;-94
2021/08/26 03:28:48;;;;;;;;;9.75;7.75;;;;;17.31;54.32;101545.91;4960297;28;45415;-93
2021/08/26 03:31:14;;;;;;;;;7.50;7.25;;;;;17.31;54.40;101543.28;4975975;28;47177;-95
2021/08/26 03:33:40;;;;;;;;;11.00;10.25;;;;;17.31;54.43;101549.38;4976002;28;45391;-93
2021/08/26 03:36:05;;;;;;;;;8.75;7.25;;;;;17.27;54.58;101545.19;4975792;28;45303;-92
2021/08/26 03:38:31;;;;;;;;;6.25;6.25;;;;;17.26;54.31;101554.00;4959834;28;45730;-92
2021/08/26 03:40:56;;;;;;;;;10.50;9.25;;;;;17.22;54.68;101548.06;4956143;28;46875;-92
2021/08/26 03:43:22;;;;;;;;;11.75;7.75;;;;;17.21;54.51;101554.25;4940033;28;45362;-93
2021/08/26 03:45:50;;;;;;;;;9.00;7.75;;;;;17.14;54.29;101545.00;4956107;28;45362;-93
2021/08/26 03:48:15;;;;;;;;;10.75;8.75;;;;;17.14;54.84;101550.25;4976158;28;45236;-94
2021/08/26 03:50:41;;;;;;;;;8.33;7.00;;;;;17.12;54.54;101559.16;4975443;28;46576;-93
2021/08/26 03:53:07;;;;;;;;;6.50;6.50;;;;;17.08;54.52;101556.66;4975954;28;46154;-93
2021/08/26 03:55:32;;;;;;;;;9.50;7.50;;;;;17.05;54.56;101567.34;4975878;28;45222;-93
2021/08/26 03:57:58;;;;;;;;;10.00;6.00;;;;;17.05;54.89;101558.59;4976003;28;45549;-93
2021/08/26 04:00:23;;;;;;;;;8.33;8.00;;;;;16.99;54.87;101551.81;4975735;28;47340;-95
2021/08/26 04:02:49;;;;;;;;;8.00;7.00;;;;;16.95;55.15;101551.13;4975933;28;44919;-95
2021/08/26 04:05:14;;;;;;;;;6.67;6.33;;;;;16.90;54.78;101541.78;4975991;28;45386;-94
2021/08/26 04:07:40;;;;;;;;;5.25;5.00;;;;;16.90;54.91;101555.75;4975902;28;45447;-95
2021/08/26 04:10:06;;;;;;;;;7.50;7.50;;;;;16.86;54.99;101553.38;4975761;28;48099;-94
2021/08/26 04:12:31;;;;;;;;;6.00;6.00;;;;;16.79;55.15;101552.81;4975421;28;45473;-95
2021/08/26 04:14:59;;;;;;;;;7.67;7.67;;;;;16.76;55.33;101550.34;4975297;28;45486;-94
2021/08/26 04:17:25;;;;;;;;;6.00;6.00;;;;;16.75;55.31;101556.53;4975902;28;45769;-94
2021/08/26 04:19:50;;;;;;;;;7.00;6.75;;;;;16.73;55.04;101561.88;4975287;28;46804;-95
2021/08/26 04:22:16;;;;;;;;;7.00;7.00;;;;;16.73;55.28;101563.63;4975375;28;44773;-95
2021/08/26 04:24:42;;;;;;;;;7.25;6.75;;;;;16.67;55.44;101560.38;4975638;28;45251;-93
2021/08/26 04:27:08;;;;;;;;;6.50;5.75;;;;;16.66;55.29;101563.09;4975330;28;45330;-92
2021/08/26 04:29:34;;;;;;;;;7.00;7.00;;;;;16.59;55.26;101556.44;4958767;28;46895;-92
2021/08/26 04:31:59;;;;;;;;;7.00;6.25;;;;;16.58;55.69;101558.22;4958729;28;44775;-93
2021/08/26 04:34:25;;;;;;;;;6.75;6.25;;;;;16.55;55.67;101566.25;4958808;28;45362;-93
2021/08/26 04:36:50;;;;;;;;;7.00;7.00;;;;;16.49;55.94;101554.25;4975317;28;45485;-92
2021/08/26 04:39:16;;;;;;;;;6.50;6.50;;;;;16.49;55.93;101549.00;4974902;28;46856;-94
2021/08/26 04:41:50;;;;;;;;;7.25;6.75;;;;;16.49;55.85;101556.03;4977595;28;45393;-95
2021/08/26 04:44:16;;;;;;;;;9.25;7.75;;;;;16.45;56.23;101550.06;4964584;28;45439;-96
2021/08/26 04:46:41;;;;;;;;;6.50;6.25;;;;;16.41;56.30;101546.75;4958551;28;45438;-95
2021/08/26 04:49:07;;;;;;;;;5.75;4.25;;;;;16.35;56.57;101536.53;4958684;28;47616;-96
2021/08/26 04:51:32;;;;;;;;;4.75;4.50;;;;;16.34;56.53;101536.59;4958889;28;45355;-95
2021/08/26 04:53:57;;;;;;;;;6.25;5.50;;;;;16.33;57.02;101541.00;4958539;28;45543;-95
2021/08/26 04:56:23;;;;;;;;;5.00;4.00;;;;;16.32;57.21;101541.91;4958982;28;45385;-95
2021/08/26 04:58:48;;;;;;;;;4.25;3.75;;;;;16.35;56.91;101546.19;4958500;28;47083;-96
2021/08/26 05:01:14;;;;;;;;;5.75;4.25;;;;;16.37;56.84;101544.31;4958639;28;45395;-95
2021/08/26 05:03:39;;;;;;;;;5.00;4.00;;;;;16.37;57.06;101547.81;4958872;28;45226;-95
2021/08/26 05:06:05;;;;;;;;;4.25;4.00;;;;;16.44;56.84;101551.00;4975114;28;45530;-96
2021/08/26 05:08:31;;;;;;;;;2.75;2.75;;;;;16.45;56.95;101552.69;4994556;28;47126;-95
2021/08/26 05:10:57;;;;;;;;;2.00;2.00;;;;;16.49;56.97;101553.41;4994367;28;45338;-95
2021/08/26 05:13:22;;;;;;;;;3.50;2.50;;;;;16.51;56.86;101548.91;4993988;28;45401;-94
2021/08/26 05:15:48;;;;;;;;;4.75;4.00;;;;;16.53;57.21;101547.91;4969816;28;45593;-95
2021/08/26 05:18:13;;;;;;;;;3.00;3.00;;;;;16.54;57.12;101544.34;4957372;28;47433;-95
2021/08/26 05:20:39;;;;;;;;;4.00;2.50;;;;;16.55;57.15;101538.19;4957901;28;45340;-94
2021/08/26 05:23:05;;;;;;;;;3.50;2.25;;;;;16.63;57.02;101547.47;4958286;28;45458;-95
2021/08/26 05:25:30;;;;;;;;;3.00;2.50;;;;;16.65;57.09;101548.25;4958291;28;45387;-93
2021/08/26 05:27:56;;;;;;;;;1.75;1.75;;;;;16.66;56.98;101537.66;4957894;28;46830;-93
2021/08/26 05:30:21;;;;;;;;;4.25;3.00;;;;;16.73;56.96;101547.88;4974038;28;45430;-92
2021/08/26 05:32:48;;;;;;;;;2.75;2.00;;;;;16.74;57.30;101553.06;4954967;28;45423;-93
2021/08/26 05:35:13;;;;;;;;;2.00;1.00;;;;;16.82;57.05;101558.78;4955498;28;45272;-92
2021/08/26 05:37:39;;;;;;;;;2.00;2.00;;;;;16.81;57.27;101551.00;4954360;28;47030;-94
2021/08/26 05:40:05;;;;;;;;;4.00;2.25;;;;;16.87;57.29;101560.31;4961784;28;45277;-93
2021/08/26 05:42:31;;;;;;;;;0.25;0.25;;;;;16.88;57.14;101544.50;4957315;28;45574;-92
2021/08/26 05:44:56;;;;;;;;;3.25;2.00;;;;;16.91;57.42;101551.38;4974454;28;45314;-94
2021/08/26 05:47:22;;;;;;;;;4.25;2.50;;;;;16.97;57.27;101556.31;4973520;28;47410;-92
2021/08/26 05:49:47;;;;;;;;;2.00;2.00;;;;;16.98;56.77;101547.50;4958028;28;46145;-92
2021/08/26 05:52:13;;;;;;;;;2.00;2.00;;;;;17.03;57.29;101553.41;4957803;28;45630;-93
2021/08/26 05:54:38;;;;;;;;;3.00;3.00;;;;;17.06;57.02;101548.00;4971771;28;44899;-92
2021/08/26 05:57:04;;;;;;;;;2.00;2.00;;;;;17.09;56.91;101541.75;4973321;28;48020;-93
2021/08/26 05:59:29;;;;;;;;;4.00;2.00;;;;;17.13;56.80;101545.06;4974157;28;45287;-92
2021/08/26 06:01:55;;;;;;;;;1.33;1.33;;;;;17.19;57.07;101548.25;4974068;28;45228;-92
2021/08/26 06:04:21;;;;;;;;;1.50;1.50;;;;;17.27;57.16;101554.88;4973866;28;45368;-92
2021/08/26 06:06:46;;;;;;;;;2.00;2.00;;;;;17.29;57.14;101547.75;4974241;28;47657;-92
2021/08/26 06:09:12;;;;;;;;;2.00;2.00;;;;;17.27;57.33;101547.81;4973789;28;44780;-92
2021/08/26 06:11:37;;;;;;;;;2.00;2.00;;;;;17.32;57.13;101551.06;4973768;28;45340;-93
2021/08/26 06:14:02;;;;;;;;;1.50;1.50;;;;;17.36;56.98;101557.88;4973900;28;45350;-93
2021/08/26 06:16:28;;;;;;;;;2.00;2.00;;;;;17.40;56.89;101557.72;4957138;28;47332;-92
2021/08/26 06:18:53;;;;;;;;;2.50;2.00;;;;;17.42;57.03;101553.22;4963103;28;45634;-93
2021/08/26 06:21:19;;;;;;;;;1.75;1.75;;;;;17.44;57.12;101552.22;4957113;28;45361;-92
2021/08/26 06:23:45;;;;;;;;;2.00;2.00;;;;;17.47;56.80;101557.34;4957799;28;45595;-94
2021/08/26 06:26:11;;;;;;;;;2.25;2.25;;;;;17.51;56.95;101544.88;4957773;28;47968;-92
2021/08/26 06:28:37;;;;;;;;;3.00;2.00;;;;;17.56;56.82;101557.78;4976405;28;45384;-93
2021/08/26 06:31:02;;;;;;;;;2.25;2.25;;;;;17.58;57.31;101553.25;4971170;28;44714;-92
2021/08/26 06:33:28;;;;;;;;;3.00;3.00;;;;;17.62;56.89;101560.06;4960750;28;45462;-94
2021/08/26 06:35:53;;;;;;;;;4.67;2.67;;;;;17.66;57.19;101558.13;4961044;28;48349;-93
2021/08/26 06:38:19;;;;;;;;;4.00;2.00;;;;;17.68;57.25;101557.13;4960740;28;45284;-92
2021/08/26 06:40:44;;;;;;;;;3.00;2.00;;;;;17.71;57.26;101562.22;4959831;28;45427;-92
2021/08/26 06:43:10;;;;;;;;;3.33;1.67;;;;;17.75;57.11;101553.25;4977430;28;45489;-95
2021/08/26 06:45:36;;;;;;;;;2.00;2.00;;;;;17.84;56.87;101564.19;4973490;28;46994;-93
2021/08/26 06:48:02;;;;;;;;;5.33;3.33;;;;;17.89;57.02;101554.28;4959088;28;45474;-92
2021/08/26 06:50:27;;;;;;;;;1.00;1.00;;;;;17.92;56.98;101548.84;4976366;28;45312;-94
2021/08/26 06:52:53;;;;;;;;;2.00;2.00;;;;;17.93;56.89;101547.06;4960799;28;45394;-93
2021/08/26 06:55:18;;;;;;;;;2.00;2.00;;;;;17.96;57.38;101550.38;4960525;28;47547;-92
2021/08/26 06:57:43;;;;;;;;;2.00;1.00;;;;;18.04;57.08;101555.22;4976498;28;44691;-93
2021/08/26 07:00:10;;;;;;;;;1.00;1.00;;;;;18.08;57.37;101550.66;4960583;28;45572;-93
2021/08/26 07:02:36;;;;;;;;;1.00;1.00;;;;;18.12;57.26;101546.94;4976952;28;45740;-92
2021/08/26 07:05:02;;;;;;;;;1.67;0.33;;;;;18.19;57.29;101550.91;4960299;28;47098;-93
2021/08/26 07:07:27;;;;;;;;;2.33;1.00;;;;;18.20;57.16;101550.00;4976583;28;45909;-93
2021/08/26 07:09:53;;;;;;;;;1.00;1.00;;;;;18.23;57.06;101544.53;4960427;28;45430;-93
2021/08/26 07:12:18;;;;;;;;;4.00;2.00;;;;;18.30;57.02;101551.16;4960135;28;45471;-93
2021/08/26 07:14:44;;;;;;;;;1.33;1.33;;;;;18.33;56.93;101546.69;4959745;28;47114;-93
2021/08/26 07:17:11;;;;;;;;;1.33;1.00;;;;;18.39;56.89;101555.09;4960211;28;45606;-94
2021/08/26 07:19:37;;;;;;;;;1.00;1.00;;;;;18.44;56.94;101544.28;4975799;28;44785;-92
2021/08/26 07:22:02;;;;;;;;;1.67;1.67;;;;;18.49;56.79;101549.28;4976626;28;45344;-93
2021/08/26 07:24:28;;;;;;;;;4.33;3.00;;;;;18.52;56.89;101547.31;4976194;28;45750;-93
2021/08/26 07:26:53;;;;;;;;;2.00;2.00;;;;;18.53;56.65;101551.69;4975913;28;44738;-93
2021/08/26 07:29:19;;;;;;;;;1.00;1.00;;;;;18.56;57.02;101550.63;4976091;28;45265;-95
2021/08/26 07:31:45;;;;;;;;;3.33;2.67;;;;;18.60;56.71;101538.97;4976190;28;45466;-93
2021/08/26 07:34:12;;;;;;;;;2.00;2.00;;;;;18.67;56.49;101540.34;4975510;28;47140;-92
2021/08/26 07:36:37;;;;;;;;;5.00;2.00;;;;;18.76;56.74;101543.38;4975914;28;45313;-92
2021/08/26 07:39:03;;;;;;;;;3.00;3.00;;;;;18.78;56.70;101539.72;4976380;28;45329;-93
2021/08/26 07:41:30;;;;;;;;;4.00;1.00;;;;;18.87;56.90;101535.69;4976117;28;45429;-93
2021/08/26 07:43:57;;;;;;;;;2.00;1.33;;;;;18.91;56.59;101539.84;4975724;28;46886;-92
2021/08/26 07:46:23;;;;;;;;;2.33;2.00;;;;;18.96;56.73;101539.56;4959726;28;45375;-93
2021/08/26 07:48:49;;;;;;;;;1.33;1.00;;;;;19.03;56.50;101548.84;4960081;28;45266;-93
2021/08/26 07:51:15;;;;;;;;;0.33;0.33;;;;;19.07;55.91;101545.09;4959685;28;45281;-93
2021/08/26 07:53:43;;;;;;;;;1.67;1.67;;;;;19.17;56.16;101561.22;4975427;28;46772;-93
2021/08/26 07:56:09;;;;;;;;;1.00;1.00;;;;;19.20;56.11;101549.63;4970756;28;45439;-94
2021/08/26 07:58:34;;;;;;;;;3.00;2.00;;;;;19.23;56.24;101554.72;4974916;28;45427;-93
2021/08/26 08:01:00;;;;;;;;;2.00;2.00;;;;;19.28;56.23;101552.66;4976091;28;45439;-94
2021/08/26 08:03:26;;;;;;;;;3.00;2.00;;;;;19.31;55.96;101551.63;4959786;28;45686;-93
2021/08/26 08:05:53;;;;;;;;;4.33;3.00;;;;;19.39;56.34;101552.00;4974267;28;45851;-92
2021/08/26 08:08:18;;;;;;;;;3.00;3.00;;;;;19.43;56.13;101555.31;4978119;28;45483;-93
2021/08/26 08:10:44;;;;;;;;;3.00;3.00;;;;;19.47;56.20;101543.63;4979056;28;44763;-95
2021/08/26 08:13:10;;;;;;;;;3.00;3.00;;;;;19.53;56.01;101552.97;4978873;28;47088;-94
2021/08/26 08:15:36;;;;;;;;;4.25;3.00;;;;;19.55;55.96;101543.16;4978534;28;44960;-96
2021/08/26 08:18:09;;;;;;;;;2.33;2.33;;;;;19.60;55.82;101547.22;4978754;28;44756;-96
2021/08/26 08:20:34;;;;;;;;;3.50;3.50;;;;;19.63;56.06;101546.19;4978915;28;45225;-96
2021/08/26 08:23:00;;;;;;;;;3.00;2.00;;;;;19.69;55.83;101550.22;4978421;28;47784;-95
2021/08/26 08:25:25;;;;;;;;;3.00;3.00;;;;;19.72;55.49;101548.25;4978616;28;45272;-94
2021/08/26 08:27:51;;;;;;;;;4.00;3.00;;;;;19.75;56.00;101550.69;4967524;28;45236;-92
2021/08/26 08:30:16;;;;;;;;;3.50;3.50;;;;;19.77;55.56;101546.16;4975637;28;45486;-95
2021/08/26 08:32:42;;;;;;;;;3.67;3.67;;;;;19.82;55.47;101545.03;4974883;28;47842;-94
2021/08/26 08:35:08;;;;;;;;;3.00;2.00;;;;;19.87;55.36;101549.06;4975093;28;45502;-94
2021/08/26 08:37:33;;;;;;;;;2.50;2.50;;;;;19.93;55.29;101547.00;4974610;28;44803;-92
2021/08/26 08:39:59;;;;;;;;;2.00;2.00;;;;;19.99;55.25;101547.50;4975298;28;45562;-94
2021/08/26 08:42:25;;;;;;;;;2.25;2.00;;;;;20.03;55.30;101550.78;4974945;28;46897;-94
2021/08/26 08:44:50;;;;;;;;;3.25;2.25;;;;;20.03;55.29;101548.13;4975018;28;44806;-94
2021/08/26 08:47:17;;;;;;;;;2.00;2.00;;;;;20.08;55.08;101558.44;4975031;28;45342;-94
2021/08/26 08:49:43;;;;;;;;;3.67;3.67;;;;;20.09;55.05;101553.03;4990210;28;45514;-94
2021/08/26 08:52:09;;;;;;;;;2.00;2.00;;;;;20.13;55.17;101557.19;4977640;28;46495;-95
2021/08/26 08:54:36;;;;;;;;;3.33;3.33;;;;;20.18;54.78;101556.88;4978247;28;45335;-95
2021/08/26 08:57:02;;;;;;;;;5.67;2.67;;;;;20.22;55.06;101555.75;4978467;28;44817;-94
2021/08/26 08:59:29;;;;;;;;;3.33;3.00;;;;;20.29;54.96;101546.47;4972020;28;45625;-94
2021/08/26 09:01:56;;;;;;;;;3.50;3.00;;;;;20.33;55.05;101541.84;4974182;28;46677;-93
2021/08/26 09:04:23;;;;;;;;;2.50;2.25;;;;;20.39;55.21;101544.09;4957836;28;45377;-94
2021/08/26 09:06:50;;;;;;;;;4.00;2.67;;;;;20.45;55.23;101544.66;4958556;28;45264;-93
2021/08/26 09:09:16;;;;;;;;;3.33;3.33;;;;;20.52;54.86;101543.28;4958801;28;45244;-94
2021/08/26 09:12:00;;;;;;;;;5.00;3.67;;;;;20.61;54.55;101542.69;4964483;28;47407;-94
2021/08/26 09:14:28;;;;;;;;;3.50;3.25;;;;;20.66;54.25;101539.72;4940561;28;45469;-96
2021/08/26 09:16:55;;;;;;;;;4.00;2.75;;;;;20.72;54.38;101541.09;4958519;28;44779;-93
2021/08/26 09:19:29;;;;;;;;;4.00;3.25;;;;;20.79;54.41;101550.34;4958644;28;45443;-92
2021/08/26 09:22:02;;;;;;;;;4.00;3.00;;;;;20.80;54.68;101544.09;4958220;28;47664;-94
2021/08/26 09:24:51;;;;;;;;;3.75;3.75;;;;;20.82;54.40;101550.97;4958142;28;45455;-93
2021/08/26 09:27:32;;;;;;;;;3.75;3.25;;;;;20.86;54.60;101550.78;4974799;28;44844;-94
2021/08/26 09:30:02;;;;;;;;;4.50;3.75;;;;;20.85;54.46;101544.69;4974780;28;45429;-94
2021/08/26 09:32:36;;;;;;;;;3.00;3.00;;;;;20.88;54.53;101554.19;4974218;28;45631;-93
2021/08/26 09:35:19;;;;;;;;;2.00;2.00;;;;;20.87;54.09;101544.56;4974419;28;45454;-94
2021/08/26 09:37:56;;;;;;;;;5.00;4.00;;;;;20.94;54.27;101544.06;4974528;28;45335;-93
2021/08/26 09:40:30;;;;;;;;;4.67;3.33;;;;;20.98;54.53;101550.00;4974622;28;45304;-95
2021/08/26 09:43:05;;;;;;;;;1.33;1.33;;;;;21.06;54.54;101544.19;4974214;28;47054;-94
2021/08/26 09:45:39;;;;;;;;;2.00;2.00;;;;;21.13;54.34;101531.34;4972847;28;45434;-94
2021/08/26 09:48:10;;;;;;;;;2.00;2.00;;;;;21.22;54.26;101542.19;4958537;28;45426;-96
2021/08/26 09:50:54;;;;;;;;;2.75;2.25;;;;;21.31;54.30;101542.50;4957931;28;45559;-93
2021/08/26 09:53:22;;;;;;;;;3.00;2.00;;;;;21.35;54.21;101539.50;4957194;28;47577;-95
2021/08/26 09:55:48;;;;;;;;;1.33;1.33;;;;;21.42;53.72;101537.28;4974446;28;45955;-93
2021/08/26 09:58:14;;;;;;;;;3.00;1.67;;;;;21.47;54.15;101543.13;4977383;28;45466;-93
2021/08/26 10:00:39;;;;;;;;;2.50;2.00;;;;;21.51;53.56;101538.44;4994194;28;45666;-94
2021/08/26 10:03:09;;;;;;;;;1.00;1.00;;;;;21.55;53.67;101534.63;4977554;28;46619;-94
2021/08/26 10:05:36;;;;;;;;;2.00;1.67;;;;;21.57;53.70;101537.19;4971796;28;45479;-94
2021/08/26 10:08:03;;;;;;;;;0.67;0.33;;;;;21.60;53.89;101526.34;4977589;28;45221;-94
2021/08/26 10:10:29;;;;;;;;;1.00;1.00;;;;;21.62;53.70;101529.75;4961613;28;45359;-94
2021/08/26 10:12:55;;;;;;;;;1.00;1.00;;;;;21.66;53.79;101528.56;4961015;28;47142;-94
2021/08/26 10:15:20;;;;;;;;;1.00;1.00;;;;;21.75;53.63;101527.09;4961126;28;45317;-93
2021/08/26 10:17:46;;;;;;;;;0.00;0.00;;;;;21.80;53.85;101521.50;4961567;28;45298;-93
2021/08/26 10:20:12;;;;;;;;;0.33;0.33;;;;;21.86;53.98;101526.34;4961481;28;45689;-93
2021/08/26 10:22:37;;;;;;;;;0.00;0.00;;;;;21.99;53.50;101526.31;4960852;28;47199;-94
2021/08/26 10:25:03;;;;;;;;;1.00;1.00;;;;;22.07;53.66;101520.47;4960972;28;45265;-95
2021/08/26 10:27:32;;;;;;;;;0.33;0.33;;;;;22.15;53.37;101520.75;4965429;28;45296;-96
2021/08/26 10:29:57;;;;;;;;;0.33;0.33;;;;;22.25;52.95;101521.75;4975372;28;45316;-95
2021/08/26 10:32:24;;;;;;;;;1.33;0.33;;;;;22.31;53.18;101509.84;4971874;28;47827;-96
2021/08/26 10:35:14;;;;;;;;;1.00;0.00;;;;;22.45;52.52;101519.41;4980458;28;45479;-96
2021/08/26 10:37:54;;;;;;;;;1.00;1.00;;;;;22.51;52.61;101519.00;4980299;28;45285;-93
2021/08/26 10:40:26;;;;;;;;;2.33;0.67;;;;;22.62;52.08;101514.69;4980551;28;45790;-96
2021/08/26 10:42:55;;;;;;;;;0.33;0.33;;;;;22.59;52.47;101521.06;4977780;28;45243;-96
2021/08/26 10:45:26;;;;;;;;;3.00;1.00;;;;;22.64;52.15;101520.75;4976449;28;45446;-95
2021/08/26 10:47:56;;;;;;;;;0.67;0.67;;;;;22.69;52.24;101523.91;4979310;28;44953;-95
2021/08/26 10:50:29;;;;;;;;;0.00;0.00;;;;;22.72;51.82;101525.47;4980301;28;45402;-95
2021/08/26 10:53:04;;;;;;;;;0.33;0.00;;;;;22.71;51.60;101529.94;4979425;28;47501;-96
2021/08/26 10:55:47;;;;;;;;;1.33;0.33;;;;;22.69;52.25;101523.91;4979945;28;45423;-95
2021/08/26 10:58:25;;;;;;;;;2.33;0.33;;;;;22.66;52.11;101519.66;4979757;28;45394;-94
2021/08/26 11:00:50;;;;;;;;;0.67;0.00;;;;;22.60;51.82;101530.75;4979907;28;45505;-95
2021/08/26 11:03:34;;;;;;;;;0.33;0.33;;;;;22.55;52.10;101535.53;4969540;28;47262;-95
2021/08/26 11:06:19;;;;;;;;;0.00;0.00;;;;;22.52;52.69;101533.06;4961876;28;45408;-95
2021/08/26 11:08:53;;;;;;;;;0.00;0.00;;;;;22.45;52.03;101530.03;4963446;28;45415;-95
2021/08/26 11:11:30;;;;;;;;;0.00;0.00;;;;;22.49;52.54;101533.31;4975394;28;45336;-95
2021/08/26 11:14:02;;;;;;;;;0.00;0.00;;;;;22.57;52.56;101538.91;4958544;28;46785;-95
2021/08/26 11:16:27;;;;;;;;;0.00;0.00;;;;;22.67;52.00;101533.75;4957431;28;45477;-95
2021/08/26 11:18:55;;;;;;;;;0.00;0.00;;;;;22.71;51.90;101537.88;4959849;28;45906;-94
2021/08/26 11:21:45;;;;;;;;;0.00;0.00;;;;;22.80;51.38;101539.84;4974831;28;45426;-94
2021/08/26 11:24:14;;;;;;;;;0.00;0.00;;;;;22.85;51.51;101538.66;4960456;28;46851;-94
2021/08/26 11:26:52;;;;;;;;;0.00;0.00;;;;;22.88;51.57;101536.63;4974723;28;45808;-94
2021/08/26 11:29:17;;;;;;;;;1.33;1.00;;;;;22.93;51.71;101538.91;4973984;28;45666;-95